Time;durP1;ratioP1;P1;durP2;ratioP2;P2;SDS_P1;SDS_P2;PMS_P1;PMS_P2;Temp;Humidity;BMP_temperature;BMP_pressure;BME280_temperature;BME280_humidity;BME280_pressure;Samples;Min_cycle;Max_cycle;Signal;HPM_P1;HPM_P2
2023/05/03 00:02:01;;;;;;;;;;;18.00;64.40;;;;;;5051484;28;924;-70
2023/05/03 00:04:27;;;;;;;;;;;18.00;64.40;;;;;;5050689;28;1279;-70
2023/05/03 00:06:52;;;;;;;;;;;18.00;64.40;;;;;;5050820;28;1914;-70
2023/05/03 00:09:18;;;;;;;;;;;17.90;64.40;;;;;;5050854;28;864;-71
2023/05/03 00:11:43;;;;;;;;;;;18.00;64.50;;;;;;5051043;28;938;-72
2023/05/03 00:14:09;;;;;;;;;;;18.00;64.50;;;;;;5045705;28;1370;-72
2023/05/03 00:16:34;;;;;;;;;;;17.90;64.40;;;;;;5050962;28;1072;-71
2023/05/03 00:19:00;;;;;;;;;;;17.90;64.50;;;;;;5050789;28;879;-71
2023/05/03 00:21:26;;;;;;;;;;;18.00;64.50;;;;;;5050843;28;850;-71
2023/05/03 00:23:51;;;;;;;;;;;17.90;64.50;;;;;;5050556;28;1247;-71
2023/05/03 00:26:17;;;;;;;;;;;17.90;64.50;;;;;;5050825;28;1906;-71
2023/05/03 00:28:42;;;;;;;;;;;17.90;64.50;;;;;;5050687;28;938;-71
2023/05/03 00:31:08;;;;;;;;;;;17.90;64.50;;;;;;5050735;28;1013;-71
2023/05/03 00:33:34;;;;;;;;;;;17.90;64.50;;;;;;5050664;28;1385;-71
2023/05/03 00:36:05;;;;;;;;;;;17.90;64.50;;;;;;5049947;28;1150;-71
2023/05/03 00:38:31;;;;;;;;;;;17.90;64.60;;;;;;5031728;28;1314;-71
2023/05/03 00:40:56;;;;;;;;;;;17.90;64.60;;;;;;5050399;28;1013;-71
2023/05/03 00:43:22;;;;;;;;;;;17.90;64.60;;;;;;5050215;28;937;-71
2023/05/03 00:45:47;;;;;;;;;;;17.90;64.60;;;;;;5050442;28;1354;-71
2023/05/03 00:48:13;;;;;;;;;;;17.90;64.60;;;;;;5050407;28;1957;-71
2023/05/03 00:50:38;;;;;;;;;;;17.90;64.70;;;;;;5050414;28;1128;-71
2023/05/03 00:53:03;;;;;;;;;;;17.90;64.70;;;;;;5065883;28;1367;-71
2023/05/03 00:55:30;;;;;;;;;;;17.90;64.70;;;;;;5050085;28;1388;-71
2023/05/03 00:57:56;;;;;;;;;;;17.90;64.70;;;;;;5050333;28;986;-71
2023/05/03 01:00:22;;;;;;;;;;;17.90;64.70;;;;;;5050463;28;801;-71
2023/05/03 01:02:48;;;;;;;;;;;17.90;64.70;;;;;;5050031;28;875;-72
2023/05/03 01:05:14;;;;;;;;;;;17.90;64.80;;;;;;5050745;28;1282;-71
2023/05/03 01:07:45;;;;;;;;;;;17.90;64.70;;;;;;5033965;28;1977;-71
2023/05/03 01:10:19;;;;;;;;;;;17.90;64.70;;;;;;5049223;28;990;-71
2023/05/03 01:12:45;;;;;;;;;;;17.90;64.80;;;;;;5048986;28;830;-71
2023/05/03 01:15:23;;;;;;;;;;;17.90;64.80;;;;;;5049754;28;1272;-71
2023/05/03 01:17:49;;;;;;;;;;;17.90;64.80;;;;;;5048891;28;966;-71
2023/05/03 01:20:16;;;;;;;;;;;17.90;64.80;;;;;;5049748;28;835;-71
2023/05/03 01:22:42;;;;;;;;;;;17.90;64.80;;;;;;5049004;28;808;-71
2023/05/03 01:25:09;;;;;;;;;;;17.90;64.80;;;;;;5049731;28;1334;-70
2023/05/03 01:27:37;;;;;;;;;;;17.90;64.80;;;;;;5048835;28;1894;-71
2023/05/03 01:30:04;;;;;;;;;;;17.90;64.90;;;;;;5050166;28;816;-71
2023/05/03 01:32:31;;;;;;;;;;;17.90;64.80;;;;;;5081972;28;886;-71
2023/05/03 01:35:03;;;;;;;;;;;17.90;64.90;;;;;;5031159;28;1511;-71
2023/05/03 01:37:28;;;;;;;;;;;17.90;64.90;;;;;;5048710;28;1251;-71
2023/05/03 01:39:58;;;;;;;;;;;17.90;64.90;;;;;;5082130;28;1268;-70
2023/05/03 01:42:24;;;;;;;;;;;17.90;64.90;;;;;;5048410;28;820;-71
2023/05/03 01:44:49;;;;;;;;;;;17.90;65.20;;;;;;5081654;28;1259;-71
2023/05/03 01:47:15;;;;;;;;;;;17.90;64.90;;;;;;5082058;28;1894;-70
2023/05/03 01:49:40;;;;;;;;;;;17.90;64.90;;;;;;5082153;28;1166;-70
2023/05/03 01:52:06;;;;;;;;;;;17.90;65.00;;;;;;5049827;28;884;-70
2023/05/03 01:54:31;;;;;;;;;;;17.90;64.90;;;;;;5049497;28;1335;-70
2023/05/03 01:56:57;;;;;;;;;;;17.90;65.00;;;;;;5049511;28;1018;-70
2023/05/03 01:59:22;;;;;;;;;;;17.90;65.00;;;;;;5049680;28;913;-70
2023/05/03 02:01:48;;;;;;;;;;;17.80;64.90;;;;;;5049896;28;983;-70
2023/05/03 02:04:13;;;;;;;;;;;17.90;65.00;;;;;;5049517;28;1343;-70
2023/05/03 02:06:38;;;;;;;;;;;17.90;65.00;;;;;;5049723;28;1955;-71
2023/05/03 02:09:04;;;;;;;;;;;17.90;65.10;;;;;;5049648;28;792;-71
2023/05/03 02:11:29;;;;;;;;;;;17.90;65.00;;;;;;5049692;28;950;-71
2023/05/03 02:13:55;;;;;;;;;;;17.80;65.00;;;;;;5082037;28;1353;-71
2023/05/03 02:16:21;;;;;;;;;;;17.90;65.00;;;;;;5085819;28;814;-71
2023/05/03 02:18:46;;;;;;;;;;;17.80;65.00;;;;;;5053174;28;812;-71
2023/05/03 02:21:12;;;;;;;;;;;17.80;65.00;;;;;;5054093;28;1413;-71
2023/05/03 02:23:37;;;;;;;;;;;17.90;65.10;;;;;;5053015;28;784;-71
2023/05/03 02:26:03;;;;;;;;;;;17.80;65.00;;;;;;5053052;28;1952;-70
2023/05/03 02:28:29;;;;;;;;;;;17.90;65.10;;;;;;5053023;28;830;-71
2023/05/03 02:30:54;;;;;;;;;;;17.90;65.20;;;;;;5052898;28;1001;-71
2023/05/03 02:33:20;;;;;;;;;;;17.90;65.10;;;;;;5052876;28;1376;-71
2023/05/03 02:35:46;;;;;;;;;;;17.90;65.10;;;;;;5085160;28;1283;-71
2023/05/03 02:38:11;;;;;;;;;;;17.80;65.10;;;;;;5052824;28;1285;-71
2023/05/03 02:40:37;;;;;;;;;;;17.90;65.10;;;;;;5051461;28;1165;-71
2023/05/03 02:43:02;;;;;;;;;;;17.90;65.90;;;;;;5052683;28;1041;-71
2023/05/03 02:45:28;;;;;;;;;;;17.90;65.20;;;;;;5052343;28;1365;-71
2023/05/03 02:47:53;;;;;;;;;;;17.90;65.20;;;;;;5052663;28;1953;-71
2023/05/03 02:50:19;;;;;;;;;;;17.90;65.20;;;;;;5052777;28;830;-71
2023/05/03 02:52:44;;;;;;;;;;;17.90;65.20;;;;;;5052721;28;876;-72
2023/05/03 02:55:10;;;;;;;;;;;17.80;65.10;;;;;;5053013;28;1347;-72
2023/05/03 02:57:35;;;;;;;;;;;17.80;65.20;;;;;;5052626;28;827;-72
2023/05/03 03:00:01;;;;;;;;;;;17.90;65.20;;;;;;5052808;28;1093;-72
2023/05/03 03:02:26;;;;;;;;;;;17.80;65.10;;;;;;5052520;28;948;-71
2023/05/03 03:04:52;;;;;;;;;;;17.80;65.20;;;;;;5051797;28;1337;-72
2023/05/03 03:07:17;;;;;;;;;;;17.80;65.20;;;;;;5052236;28;1987;-71
2023/05/03 03:09:43;;;;;;;;;;;17.90;65.30;;;;;;5084469;28;861;-72
2023/05/03 03:12:08;;;;;;;;;;;17.80;65.20;;;;;;5056152;28;1187;-71
2023/05/03 03:14:34;;;;;;;;;;;17.80;65.20;;;;;;5050526;28;1340;-72
2023/05/03 03:16:59;;;;;;;;;;;17.90;65.30;;;;;;5052084;28;860;-71
2023/05/03 03:19:25;;;;;;;;;;;17.90;65.30;;;;;;5084467;28;855;-72
2023/05/03 03:21:50;;;;;;;;;;;17.90;65.30;;;;;;5052058;28;860;-71
2023/05/03 03:24:16;;;;;;;;;;;17.90;66.10;;;;;;5051825;28;1274;-72
2023/05/03 03:26:41;;;;;;;;;;;17.80;65.30;;;;;;5051931;28;1955;-72
2023/05/03 03:29:08;;;;;;;;;;;17.80;65.30;;;;;;5051737;28;879;-72
2023/05/03 03:31:34;;;;;;;;;;;17.90;65.30;;;;;;5052095;28;981;-71
2023/05/03 03:33:59;;;;;;;;;;;17.80;65.30;;;;;;5052255;28;1297;-71
2023/05/03 03:36:26;;;;;;;;;;;17.80;65.30;;;;;;5051808;28;923;-71
2023/05/03 03:38:52;;;;;;;;;;;17.80;65.30;;;;;;5051605;28;1256;-71
2023/05/03 03:41:18;;;;;;;;;;;17.80;65.30;;;;;;5051719;28;1251;-71
2023/05/03 03:43:43;;;;;;;;;;;17.80;65.30;;;;;;5083619;28;1367;-71
2023/05/03 03:46:09;;;;;;;;;;;17.80;65.30;;;;;;5051685;28;1973;-71
2023/05/03 03:48:34;;;;;;;;;;;17.80;65.30;;;;;;5051495;28;895;-71
2023/05/03 03:51:00;;;;;;;;;;;17.80;65.30;;;;;;5051287;28;883;-71
2023/05/03 03:53:25;;;;;;;;;;;17.80;65.40;;;;;;5051091;28;816;-71
2023/05/03 03:55:51;;;;;;;;;;;17.80;65.30;;;;;;5051207;28;1265;-71
2023/05/03 03:58:16;;;;;;;;;;;17.80;65.30;;;;;;5048633;28;1074;-71
2023/05/03 04:00:42;;;;;;;;;;;17.80;65.30;;;;;;5049438;28;1006;-71
2023/05/03 04:03:07;;;;;;;;;;;17.80;65.30;;;;;;5050662;28;876;-71
2023/05/03 04:05:32;;;;;;;;;;;17.80;65.30;;;;;;5044919;28;1339;-71
2023/05/03 04:07:58;;;;;;;;;;;17.80;65.30;;;;;;5050450;28;1906;-71
2023/05/03 04:10:23;;;;;;;;;;;17.90;65.40;;;;;;5049577;28;840;-71
2023/05/03 04:12:49;;;;;;;;;;;17.90;66.10;;;;;;5050738;28;1065;-71
2023/05/03 04:15:14;;;;;;;;;;;17.90;65.30;;;;;;5082301;28;1287;-71
2023/05/03 04:17:40;;;;;;;;;;;17.90;65.20;;;;;;5050927;28;905;-71
2023/05/03 04:20:06;;;;;;;;;;;17.90;65.10;;;;;;5050838;28;886;-71
2023/05/03 04:22:32;;;;;;;;;;;18.00;65.00;;;;;;5050822;28;816;-71
2023/05/03 04:24:59;;;;;;;;;;;18.00;64.90;;;;;;5050347;28;1264;-71
2023/05/03 04:27:25;;;;;;;;;;;18.00;64.80;;;;;;5049658;28;1979;-71
2023/05/03 04:29:52;;;;;;;;;;;18.00;64.60;;;;;;5049351;28;929;-72
2023/05/03 04:32:22;;;;;;;;;;;18.10;64.50;;;;;;5050606;28;800;-72
2023/05/03 04:34:51;;;;;;;;;;;18.10;64.40;;;;;;5050433;28;1378;-72
2023/05/03 04:37:18;;;;;;;;;;;18.10;64.30;;;;;;5049743;28;910;-72
2023/05/03 04:39:44;;;;;;;;;;;18.20;64.30;;;;;;5082632;28;1330;-71
2023/05/03 04:42:10;;;;;;;;;;;18.20;64.20;;;;;;5050790;28;831;-72
2023/05/03 04:44:36;;;;;;;;;;;18.20;64.10;;;;;;5050257;28;1341;-71
2023/05/03 04:47:01;;;;;;;;;;;18.20;64.00;;;;;;5051875;28;1935;-71
2023/05/03 04:49:27;;;;;;;;;;;18.30;64.00;;;;;;5050879;28;902;-71
2023/05/03 04:51:52;;;;;;;;;;;18.30;63.90;;;;;;5045296;28;1538;-71
2023/05/03 04:54:18;;;;;;;;;;;18.30;63.90;;;;;;5040814;28;1768;-69
2023/05/03 04:56:43;;;;;;;;;;;18.30;63.80;;;;;;5049423;28;1862;-68
2023/05/03 04:59:09;;;;;;;;;;;18.30;63.80;;;;;;5049941;28;1226;-73
2023/05/03 05:01:34;;;;;;;;;;;18.30;63.70;;;;;;5050310;28;844;-72
2023/05/03 05:04:00;;;;;;;;;;;18.30;63.70;;;;;;5050033;28;1331;-71
2023/05/03 05:06:26;;;;;;;;;;;18.30;63.60;;;;;;5049558;28;1973;-73
2023/05/03 05:08:51;;;;;;;;;;;18.40;63.70;;;;;;5050094;28;890;-70
2023/05/03 05:11:17;;;;;;;;;;;18.40;63.60;;;;;;5048864;28;943;-70
2023/05/03 05:13:43;;;;;;;;;;;18.40;63.60;;;;;;5049456;28;1298;-71
2023/05/03 05:16:08;;;;;;;;;;;18.40;63.60;;;;;;5082466;28;1058;-71
2023/05/03 05:18:34;;;;;;;;;;;18.40;63.60;;;;;;5050127;28;859;-72
2023/05/03 05:20:59;;;;;;;;;;;18.40;63.50;;;;;;5049961;28;823;-71
2023/05/03 05:23:26;;;;;;;;;;;18.40;63.50;;;;;;5049729;28;816;-70
2023/05/03 05:25:52;;;;;;;;;;;18.40;63.50;;;;;;5050113;28;1381;-71
2023/05/03 05:28:18;;;;;;;;;;;18.40;63.50;;;;;;5080606;28;1967;-69
2023/05/03 05:30:43;;;;;;;;;;;18.40;63.50;;;;;;5050004;28;926;-71
2023/05/03 05:33:09;;;;;;;;;;;18.40;63.50;;;;;;5041710;28;1459;-71
2023/05/03 05:35:34;;;;;;;;;;;18.40;63.50;;;;;;5050265;28;1272;-69
2023/05/03 05:38:00;;;;;;;;;;;18.40;63.60;;;;;;5049860;28;944;-71
2023/05/03 05:40:25;;;;;;;;;;;18.40;63.60;;;;;;5050820;28;908;-71
2023/05/03 05:42:51;;;;;;;;;;;18.40;63.70;;;;;;5050379;28;1013;-69
2023/05/03 05:45:17;;;;;;;;;;;18.40;63.70;;;;;;5049481;28;1253;-69
2023/05/03 05:47:42;;;;;;;;;;;18.40;63.70;;;;;;5049388;28;1894;-71
2023/05/03 05:50:08;;;;;;;;;;;18.40;63.70;;;;;;5084832;28;1217;-72
2023/05/03 05:52:33;;;;;;;;;;;18.40;63.90;;;;;;5053682;28;776;-72
2023/05/03 05:54:59;;;;;;;;;;;18.50;64.00;;;;;;5053082;28;1382;-72
2023/05/03 05:57:24;;;;;;;;;;;18.50;64.50;;;;;;5053618;28;883;-72
2023/05/03 05:59:50;;;;;;;;;;;18.60;63.70;;;;;;5053622;28;804;-71
2023/05/03 06:02:16;;;;;;;;;;;18.70;63.60;;;;;;5053717;28;1017;-70
2023/05/03 06:04:42;;;;;;;;;;;18.70;63.40;;;;;;5052078;28;1375;-72
2023/05/03 06:07:07;;;;;;;;;;;18.80;63.20;;;;;;5051799;28;1957;-73
2023/05/03 06:09:32;;;;;;;;;;;18.90;62.90;;;;;;5052837;28;832;-74
2023/05/03 06:11:58;;;;;;;;;;;19.00;62.70;;;;;;5051871;28;871;-74
2023/05/03 06:14:23;;;;;;;;;;;19.10;62.50;;;;;;5068397;28;1449;-73
2023/05/03 06:16:49;;;;;;;;;;;19.20;62.30;;;;;;5051904;28;1349;-73
2023/05/03 06:19:15;;;;;;;;;;;19.30;62.10;;;;;;5053176;28;848;-71
2023/05/03 06:21:40;;;;;;;;;;;19.30;61.80;;;;;;5053391;28;845;-71
2023/05/03 06:24:06;;;;;;;;;;;19.40;61.70;;;;;;5052663;28;1381;-71
2023/05/03 06:26:31;;;;;;;;;;;19.50;61.50;;;;;;5048318;28;1947;-71
2023/05/03 06:28:59;;;;;;;;;;;19.50;61.30;;;;;;5053231;28;891;-71
2023/05/03 06:31:25;;;;;;;;;;;19.50;61.10;;;;;;5053568;28;880;-71
2023/05/03 06:33:50;;;;;;;;;;;19.60;61.00;;;;;;5054169;28;1434;-72
2023/05/03 06:36:16;;;;;;;;;;;19.60;60.80;;;;;;5054745;28;837;-72
2023/05/03 06:38:42;;;;;;;;;;;19.70;60.70;;;;;;5069999;28;1541;-75
2023/05/03 06:41:08;;;;;;;;;;;19.70;60.60;;;;;;5053135;28;840;-73
2023/05/03 06:43:33;;;;;;;;;;;19.80;60.60;;;;;;5052751;28;866;-73
2023/05/03 06:45:59;;;;;;;;;;;19.80;60.50;;;;;;5052572;28;1188;-71
2023/05/03 06:48:24;;;;;;;;;;;19.80;60.30;;;;;;5052366;28;1906;-71
2023/05/03 06:50:50;;;;;;;;;;;19.80;60.20;;;;;;5052587;28;910;-72
2023/05/03 06:53:15;;;;;;;;;;;19.90;60.20;;;;;;5051997;28;816;-72
2023/05/03 06:55:47;;;;;;;;;;;19.90;60.10;;;;;;5052454;28;1311;-72
2023/05/03 06:58:12;;;;;;;;;;;19.90;60.10;;;;;;5052710;28;887;-72
2023/05/03 07:00:38;;;;;;;;;;;19.90;60.00;;;;;;5052161;28;796;-71
2023/05/03 07:03:04;;;;;;;;;;;19.90;60.00;;;;;;5052294;28;840;-70
2023/05/03 07:05:29;;;;;;;;;;;20.00;59.90;;;;;;5084330;28;1269;-71
2023/05/03 07:07:55;;;;;;;;;;;20.00;59.90;;;;;;5051579;28;1918;-71
2023/05/03 07:10:20;;;;;;;;;;;20.00;60.00;;;;;;5051831;28;1255;-72
2023/05/03 07:12:46;;;;;;;;;;;20.00;60.40;;;;;;5051419;28;1267;-70
2023/05/03 07:15:11;;;;;;;;;;;20.10;60.50;;;;;;5052359;28;1486;-70
2023/05/03 07:17:37;;;;;;;;;;;20.10;60.50;;;;;;5052269;28;1324;-71
2023/05/03 07:20:03;;;;;;;;;;;20.10;60.70;;;;;;5051774;28;1320;-71
2023/05/03 07:22:28;;;;;;;;;;;20.10;60.90;;;;;;5083167;28;1532;-71
2023/05/03 07:24:54;;;;;;;;;;;20.10;61.40;;;;;;5081266;28;1921;-69
2023/05/03 07:27:20;;;;;;;;;;;20.10;61.70;;;;;;5051263;28;1915;-70
2023/05/03 07:29:45;;;;;;;;;;;20.10;62.20;;;;;;5082839;28;1349;-69
2023/05/03 07:32:11;;;;;;;;;;;20.10;62.20;;;;;;5051445;28;1295;-70
2023/05/03 07:34:37;;;;;;;;;;;20.10;62.50;;;;;;5050182;28;2011;-70
2023/05/03 07:37:02;;;;;;;;;;;20.10;62.60;;;;;;5084745;28;1511;-70
2023/05/03 07:39:28;;;;;;;;;;;20.10;63.00;;;;;;5085027;28;1328;-70
2023/05/03 07:41:53;;;;;;;;;;;20.10;62.80;;;;;;5068179;28;1175;-70
2023/05/03 07:44:20;;;;;;;;;;;20.00;62.80;;;;;;5051338;28;1276;-70
2023/05/03 07:46:48;;;;;;;;;;;20.00;62.80;;;;;;5083702;28;1910;-70
2023/05/03 07:49:13;;;;;;;;;;;20.00;63.00;;;;;;5067863;28;1301;-70
2023/05/03 07:51:39;;;;;;;;;;;20.00;63.20;;;;;;5067273;28;1358;-70
2023/05/03 07:54:05;;;;;;;;;;;20.00;63.30;;;;;;5083646;28;1728;-70
2023/05/03 07:56:31;;;;;;;;;;;20.00;63.40;;;;;;5050630;28;1508;-70
2023/05/03 07:58:56;;;;;;;;;;;20.00;63.40;;;;;;5044904;28;1496;-70
2023/05/03 08:01:22;;;;;;;;;;;20.00;63.30;;;;;;5034476;28;1135;-70
2023/05/03 08:03:51;;;;;;;;;;;20.00;63.30;;;;;;5050437;28;1263;-70
2023/05/03 08:06:16;;;;;;;;;;;19.90;63.50;;;;;;5050312;28;1918;-70
2023/05/03 08:08:42;;;;;;;;;;;19.90;63.60;;;;;;5045844;28;916;-70
2023/05/03 08:11:07;;;;;;;;;;;19.90;63.70;;;;;;5050738;28;879;-70
2023/05/03 08:13:33;;;;;;;;;;;19.90;63.80;;;;;;5051804;28;796;-70
2023/05/03 08:15:58;;;;;;;;;;;19.90;64.00;;;;;;5048202;28;1406;-70
2023/05/03 08:18:25;;;;;;;;;;;19.80;64.90;;;;;;5051363;28;837;-70
2023/05/03 08:20:51;;;;;;;;;;;19.80;64.30;;;;;;5043971;28;1125;-70
2023/05/03 08:23:16;;;;;;;;;;;19.80;64.70;;;;;;5051846;28;835;-70
2023/05/03 08:25:44;;;;;;;;;;;19.80;64.80;;;;;;5051768;28;1217;-70
2023/05/03 08:28:09;;;;;;;;;;;19.80;65.80;;;;;;5050839;28;1902;-70
2023/05/03 08:30:35;;;;;;;;;;;19.80;65.70;;;;;;5050745;28;939;-70
2023/05/03 08:33:01;;;;;;;;;;;19.80;65.60;;;;;;5048982;28;2168;-69
2023/05/03 08:35:27;;;;;;;;;;;19.80;65.70;;;;;;5048743;28;2051;-69
2023/05/03 08:37:52;;;;;;;;;;;19.80;65.70;;;;;;5082793;28;1257;-69
2023/05/03 08:40:21;;;;;;;;;;;19.70;65.70;;;;;;5048166;28;862;-70
2023/05/03 08:42:46;;;;;;;;;;;19.70;65.80;;;;;;5050341;28;1030;-71
2023/05/03 08:45:13;;;;;;;;;;;19.80;66.00;;;;;;5049922;28;1298;-70
2023/05/03 08:47:40;;;;;;;;;;;19.70;66.00;;;;;;5048343;28;1950;-71
2023/05/03 08:50:09;;;;;;;;;;;19.70;66.20;;;;;;5046371;28;813;-70
2023/05/03 08:52:35;;;;;;;;;;;19.70;66.20;;;;;;5050095;28;849;-70
2023/05/03 08:55:00;;;;;;;;;;;19.70;66.30;;;;;;5050386;28;1294;-70
2023/05/03 08:57:25;;;;;;;;;;;19.60;66.20;;;;;;5050252;28;1108;-70
2023/05/03 08:59:57;;;;;;;;;;;19.60;66.30;;;;;;5049264;28;1022;-70
2023/05/03 09:02:23;;;;;;;;;;;19.60;66.40;;;;;;5049001;28;863;-70
2023/05/03 09:04:48;;;;;;;;;;;19.60;66.30;;;;;;5050146;28;1252;-70
2023/05/03 09:07:16;;;;;;;;;;;19.60;66.40;;;;;;5050138;28;1956;-71
2023/05/03 09:09:42;;;;;;;;;;;19.60;66.50;;;;;;5049468;28;926;-71
2023/05/03 09:12:08;;;;;;;;;;;19.60;66.50;;;;;;5082388;28;871;-71
2023/05/03 09:14:43;;;;;;;;;;;19.60;66.60;;;;;;5082388;28;1244;-71
2023/05/03 09:17:20;;;;;;;;;;;19.50;66.70;;;;;;5047885;28;1299;-71
2023/05/03 09:19:49;;;;;;;;;;;19.50;66.60;;;;;;5081947;28;930;-71
2023/05/03 09:22:15;;;;;;;;;;;19.50;66.70;;;;;;5045149;28;841;-70
2023/05/03 09:24:47;;;;;;;;;;;19.50;66.70;;;;;;5086032;28;1329;-70
2023/05/03 09:27:16;;;;;;;;;;;19.50;66.80;;;;;;5086038;28;1961;-71
2023/05/03 09:29:42;;;;;;;;;;;19.50;66.80;;;;;;5053853;28;911;-71
2023/05/03 09:32:08;;;;;;;;;;;19.50;66.80;;;;;;5054129;28;883;-71
2023/05/03 09:34:34;;;;;;;;;;;19.50;67.00;;;;;;5053807;28;1478;-71
2023/05/03 09:37:00;;;;;;;;;;;19.50;67.00;;;;;;5086150;28;931;-70
2023/05/03 09:39:26;;;;;;;;;;;19.40;67.10;;;;;;5054051;28;1276;-70
2023/05/03 09:41:51;;;;;;;;;;;19.50;67.20;;;;;;5052435;28;809;-70
2023/05/03 09:44:17;;;;;;;;;;;19.40;67.30;;;;;;5052468;28;1240;-70
2023/05/03 09:47:01;;;;;;;;;;;19.40;67.50;;;;;;5053691;28;1962;-70
2023/05/03 09:49:26;;;;;;;;;;;19.50;67.60;;;;;;5051174;28;2087;-69
2023/05/03 09:51:52;;;;;;;;;;;19.50;67.60;;;;;;5052373;28;2146;-70
2023/05/03 09:54:17;;;;;;;;;;;19.50;67.60;;;;;;5049481;28;2256;-69
2023/05/03 09:56:43;;;;;;;;;;;19.50;67.60;;;;;;5051028;28;1448;-70
2023/05/03 09:59:09;;;;;;;;;;;19.40;67.60;;;;;;5084105;28;2007;-70
2023/05/03 10:01:34;;;;;;;;;;;19.40;67.60;;;;;;5052515;28;1249;-71
2023/05/03 10:04:00;;;;;;;;;;;19.40;67.60;;;;;;5085756;28;1367;-70
2023/05/03 10:06:29;;;;;;;;;;;19.40;67.70;;;;;;5085855;28;1973;-70
2023/05/03 10:08:57;;;;;;;;;;;19.40;67.80;;;;;;5054349;28;906;-70
2023/05/03 10:11:23;;;;;;;;;;;19.50;67.80;;;;;;5086937;28;1212;-70
2023/05/03 10:13:49;;;;;;;;;;;19.40;67.80;;;;;;5054689;28;1294;-71
2023/05/03 10:16:16;;;;;;;;;;;19.50;67.80;;;;;;5053553;28;1072;-70
2023/05/03 10:19:01;;;;;;;;;;;19.40;67.80;;;;;;5052190;28;870;-70
2023/05/03 10:21:56;;;;;;;;;;;19.40;67.80;;;;;;5053140;28;835;-70
2023/05/03 10:24:21;;;;;;;;;;;19.40;67.80;;;;;;5052331;28;1306;-70
2023/05/03 10:26:48;;;;;;;;;;;19.40;67.80;;;;;;5053185;28;1977;-69
2023/05/03 10:29:36;;;;;;;;;;;19.40;68.00;;;;;;5049974;28;905;-70
2023/05/03 10:32:02;;;;;;;;;;;19.40;68.20;;;;;;5052253;28;934;-69
2023/05/03 10:34:31;;;;;;;;;;;19.40;68.30;;;;;;5084445;28;1491;-70
2023/05/03 10:36:59;;;;;;;;;;;19.40;68.30;;;;;;5051522;28;883;-69
2023/05/03 10:39:25;;;;;;;;;;;19.40;68.30;;;;;;5052411;28;1246;-70
2023/05/03 10:41:58;;;;;;;;;;;19.40;68.30;;;;;;5051725;28;1331;-69
2023/05/03 10:44:47;;;;;;;;;;;19.40;68.30;;;;;;5050697;28;1284;-70
2023/05/03 10:47:13;;;;;;;;;;;19.30;68.30;;;;;;5051814;28;1898;-69
2023/05/03 10:49:38;;;;;;;;;;;19.30;68.40;;;;;;5084973;28;918;-69
2023/05/03 10:52:24;;;;;;;;;;;19.30;68.30;;;;;;5052934;28;1010;-69
2023/05/03 10:54:49;;;;;;;;;;;19.30;68.30;;;;;;5050181;28;1336;-69
2023/05/03 10:57:15;;;;;;;;;;;19.30;68.40;;;;;;5051568;28;1359;-69
2023/05/03 10:59:46;;;;;;;;;;;19.30;68.40;;;;;;5052636;28;858;-69
2023/05/03 11:02:13;;;;;;;;;;;19.30;68.40;;;;;;5051150;28;961;-69
2023/05/03 11:04:39;;;;;;;;;;;19.30;68.40;;;;;;5084364;28;1243;-69
2023/05/03 11:07:05;;;;;;;;;;;19.30;68.40;;;;;;5084503;28;1975;-68
2023/05/03 11:09:31;;;;;;;;;;;19.30;68.50;;;;;;5052155;28;832;-69
2023/05/03 11:11:56;;;;;;;;;;;19.30;68.60;;;;;;5051675;28;827;-69
2023/05/03 11:14:22;;;;;;;;;;;19.30;68.70;;;;;;5084031;28;1337;-69
2023/05/03 11:16:49;;;;;;;;;;;19.30;68.60;;;;;;5052132;28;1010;-69
2023/05/03 11:19:15;;;;;;;;;;;19.30;68.70;;;;;;5052095;28;890;-69
2023/05/03 11:21:41;;;;;;;;;;;19.20;68.60;;;;;;5052152;28;851;-68
2023/05/03 11:24:06;;;;;;;;;;;19.20;68.70;;;;;;5051570;28;1373;-69
2023/05/03 11:26:35;;;;;;;;;;;19.20;68.80;;;;;;5051865;28;1894;-68
2023/05/03 11:29:00;;;;;;;;;;;19.20;68.80;;;;;;5051236;28;809;-70
2023/05/03 11:31:26;;;;;;;;;;;19.20;68.80;;;;;;5051846;28;938;-70
2023/05/03 11:33:51;;;;;;;;;;;19.20;68.90;;;;;;5052157;28;1304;-71
2023/05/03 11:36:17;;;;;;;;;;;19.20;69.00;;;;;;5050570;28;1447;-71
2023/05/03 11:38:42;;;;;;;;;;;19.20;69.00;;;;;;5051667;28;1385;-70
2023/05/03 11:41:10;;;;;;;;;;;19.20;69.10;;;;;;5051622;28;1292;-69
2023/05/03 11:43:42;;;;;;;;;;;19.20;69.30;;;;;;5051620;28;871;-69
2023/05/03 11:46:08;;;;;;;;;;;19.20;70.20;;;;;;5050622;28;915;-70
2023/05/03 11:48:33;;;;;;;;;;;19.20;69.80;;;;;;5051046;28;1909;-70
2023/05/03 11:50:59;;;;;;;;;;;19.20;69.80;;;;;;5050128;28;1351;-70
2023/05/03 11:53:25;;;;;;;;;;;19.20;69.70;;;;;;5044711;28;1288;-71
2023/05/03 11:55:53;;;;;;;;;;;19.20;69.70;;;;;;5083770;28;1221;-71
2023/05/03 11:58:20;;;;;;;;;;;19.20;69.70;;;;;;5051883;28;817;-72
2023/05/03 12:00:46;;;;;;;;;;;19.20;69.70;;;;;;5051956;28;800;-70
2023/05/03 12:03:21;;;;;;;;;;;19.20;69.70;;;;;;5084537;28;881;-71
2023/05/03 12:05:46;;;;;;;;;;;19.20;70.00;;;;;;5059667;28;1302;-70
2023/05/03 12:08:12;;;;;;;;;;;19.20;67.50;;;;;;5051134;28;1906;-70
2023/05/03 12:10:38;;;;;;;;;;;19.20;65.10;;;;;;5049766;28;867;-70
2023/05/03 12:13:04;;;;;;;;;;;19.10;64.70;;;;;;5082907;28;944;-69
2023/05/03 12:15:33;;;;;;;;;;;19.10;63.80;;;;;;5080070;28;1333;-70
2023/05/03 12:17:59;;;;;;;;;;;19.00;62.80;;;;;;5050180;28;832;-70
2023/05/03 12:20:25;;;;;;;;;;;19.00;62.70;;;;;;5050120;28;919;-70
2023/05/03 12:22:51;;;;;;;;;;;19.00;62.70;;;;;;5049843;28;915;-70
2023/05/03 12:25:16;;;;;;;;;;;18.90;62.30;;;;;;5065528;28;1292;-70
2023/05/03 12:27:42;;;;;;;;;;;18.90;61.40;;;;;;5049026;28;1961;-71
2023/05/03 12:30:09;;;;;;;;;;;18.90;61.90;;;;;;5032180;28;1128;-71
2023/05/03 12:32:36;;;;;;;;;;;18.90;61.20;;;;;;5081584;28;915;-71
2023/05/03 12:35:02;;;;;;;;;;;18.90;61.40;;;;;;5050074;28;1339;-70
2023/05/03 12:37:27;;;;;;;;;;;18.80;62.00;;;;;;5050473;28;863;-71
2023/05/03 12:39:53;;;;;;;;;;;18.80;62.30;;;;;;5050499;28;832;-71
2023/05/03 12:42:18;;;;;;;;;;;18.80;62.20;;;;;;5082724;28;947;-71
2023/05/03 12:44:44;;;;;;;;;;;18.80;61.70;;;;;;5082113;28;1333;-71
2023/05/03 12:47:09;;;;;;;;;;;18.80;62.20;;;;;;5049752;28;1906;-71
2023/05/03 12:49:35;;;;;;;;;;;18.80;62.50;;;;;;5082828;28;1519;-70
2023/05/03 12:52:00;;;;;;;;;;;18.80;62.40;;;;;;5050244;28;923;-71
2023/05/03 12:54:26;;;;;;;;;;;18.80;63.60;;;;;;5050031;28;1276;-71
2023/05/03 12:56:51;;;;;;;;;;;18.80;62.90;;;;;;5050146;28;831;-71
2023/05/03 12:59:16;;;;;;;;;;;18.80;62.00;;;;;;5049845;28;937;-71
2023/05/03 13:01:42;;;;;;;;;;;18.70;60.60;;;;;;5050263;28;949;-71
2023/05/03 13:04:08;;;;;;;;;;;18.70;59.60;;;;;;5049753;28;1245;-72
2023/05/03 13:06:35;;;;;;;;;;;18.70;59.30;;;;;;5050025;28;1971;-71
2023/05/03 13:09:02;;;;;;;;;;;18.70;59.70;;;;;;5081800;28;1258;-71
2023/05/03 13:11:28;;;;;;;;;;;18.70;60.30;;;;;;5083991;28;886;-71
2023/05/03 13:13:53;;;;;;;;;;;18.70;61.00;;;;;;5049949;28;1397;-72
2023/05/03 13:16:19;;;;;;;;;;;18.70;61.50;;;;;;5049973;28;867;-71
2023/05/03 13:18:44;;;;;;;;;;;18.70;61.80;;;;;;5082308;28;828;-71
2023/05/03 13:21:11;;;;;;;;;;;18.70;62.10;;;;;;5050024;28;1033;-71
2023/05/03 13:23:36;;;;;;;;;;;18.70;62.20;;;;;;5050226;28;880;-71
2023/05/03 13:26:02;;;;;;;;;;;18.70;62.00;;;;;;5081253;28;1959;-71
2023/05/03 13:28:27;;;;;;;;;;;18.70;61.60;;;;;;5049133;28;2015;-70
2023/05/03 13:30:53;;;;;;;;;;;18.70;61.10;;;;;;5049069;28;1905;-70
2023/05/03 13:33:18;;;;;;;;;;;18.70;60.70;;;;;;5080460;28;1255;-71
2023/05/03 13:35:44;;;;;;;;;;;18.70;60.80;;;;;;5049670;28;1758;-71
2023/05/03 13:38:09;;;;;;;;;;;18.70;61.20;;;;;;5050031;28;1218;-71
2023/05/03 13:40:35;;;;;;;;;;;18.60;61.40;;;;;;5049776;28;998;-71
2023/05/03 13:43:00;;;;;;;;;;;18.60;61.50;;;;;;5049815;28;835;-71
2023/05/03 13:45:26;;;;;;;;;;;18.70;61.20;;;;;;5049938;28;1191;-71
2023/05/03 13:47:51;;;;;;;;;;;18.70;60.40;;;;;;5049969;28;1984;-71
2023/05/03 13:50:17;;;;;;;;;;;18.60;60.20;;;;;;5049892;28;1358;-71
2023/05/03 13:52:43;;;;;;;;;;;18.60;60.30;;;;;;5051553;28;875;-71
2023/05/03 13:55:09;;;;;;;;;;;18.60;60.30;;;;;;5081078;28;1317;-71
2023/05/03 13:57:35;;;;;;;;;;;18.60;60.20;;;;;;5049122;28;843;-71
2023/05/03 14:00:00;;;;;;;;;;;18.60;60.30;;;;;;5049726;28;812;-71
2023/05/03 14:02:26;;;;;;;;;;;18.60;59.80;;;;;;5049493;28;808;-71
2023/05/03 14:04:52;;;;;;;;;;;18.60;59.70;;;;;;5048362;28;1406;-71
2023/05/03 14:07:17;;;;;;;;;;;18.60;59.40;;;;;;5047950;28;2138;-71
2023/05/03 14:09:43;;;;;;;;;;;18.60;59.40;;;;;;5049792;28;1506;-70
2023/05/03 14:12:08;;;;;;;;;;;18.60;59.50;;;;;;5053159;28;1643;-70
2023/05/03 14:14:35;;;;;;;;;;;18.60;59.40;;;;;;5053077;28;1389;-70
2023/05/03 14:17:01;;;;;;;;;;;18.60;59.40;;;;;;5053247;28;847;-70
2023/05/03 14:19:26;;;;;;;;;;;18.60;59.00;;;;;;5053279;28;954;-69
2023/05/03 14:21:57;;;;;;;;;;;18.60;59.00;;;;;;5053383;28;955;-70
2023/05/03 14:24:23;;;;;;;;;;;18.60;58.70;;;;;;5045751;28;1307;-69
2023/05/03 14:26:48;;;;;;;;;;;18.60;58.40;;;;;;5051642;28;1963;-69
2023/05/03 14:29:14;;;;;;;;;;;18.50;57.70;;;;;;5052979;28;801;-71
2023/05/03 14:31:39;;;;;;;;;;;18.50;57.20;;;;;;5052846;28;879;-70